Time;durP1;ratioP1;P1;durP2;ratioP2;P2;SDS_P1;SDS_P2;PMS_P1;PMS_P2;Temp;Humidity;BMP_temperature;BMP_pressure;BME280_temperature;BME280_humidity;BME280_pressure;Samples;Min_cycle;Max_cycle;Signal;HPM_P1;HPM_P2
2023/07/29 00:01:00;;;;;;;11.77;11.27;;;;;;;;;;5087210;28;20492;-60
2023/07/29 00:03:25;;;;;;;11.35;10.85;;;;;;;;;;5089271;28;20016;-60
2023/07/29 00:05:50;;;;;;;11.40;10.90;;;;;;;;;;5102449;28;20497;-60
2023/07/29 00:08:16;;;;;;;11.70;11.20;;;;;;;;;;5096728;28;20024;-60
2023/07/29 00:10:41;;;;;;;11.55;11.05;;;;;;;;;;5090774;28;20031;-61
2023/07/29 00:13:07;;;;;;;11.95;11.38;;;;;;;;;;5094335;28;20535;-59
2023/07/29 00:15:32;;;;;;;11.65;11.15;;;;;;;;;;5090146;28;20379;-60
2023/07/29 00:17:57;;;;;;;11.85;11.27;;;;;;;;;;5092148;28;20410;-60
2023/07/29 00:20:23;;;;;;;11.77;11.23;;;;;;;;;;5097998;28;20077;-60
2023/07/29 00:22:53;;;;;;;12.30;11.70;;;;;;;;;;5092928;28;20402;-60
2023/07/29 00:25:18;;;;;;;11.90;11.30;;;;;;;;;;5092533;28;20045;-60
2023/07/29 00:27:44;;;;;;;11.60;11.10;;;;;;;;;;5088829;28;20713;-61
2023/07/29 00:30:09;;;;;;;11.82;11.27;;;;;;;;;;5094523;28;20026;-59
2023/07/29 00:32:35;;;;;;;11.73;11.13;;;;;;;;;;5083973;28;20146;-59
2023/07/29 00:35:00;;;;;;;11.38;10.88;;;;;;;;;;5094620;28;20099;-59
2023/07/29 00:37:26;;;;;;;11.15;10.65;;;;;;;;;;5093178;28;20376;-60
2023/07/29 00:39:51;;;;;;;11.27;10.77;;;;;;;;;;5101151;28;20028;-60
2023/07/29 00:42:16;;;;;;;11.70;11.20;;;;;;;;;;5101465;28;20035;-60
2023/07/29 00:44:42;;;;;;;12.10;11.50;;;;;;;;;;5096491;28;20095;-60
2023/07/29 00:47:07;;;;;;;11.30;10.80;;;;;;;;;;5092789;28;20012;-60
2023/07/29 00:49:33;;;;;;;12.52;11.93;;;;;;;;;;5091437;28;20032;-60
2023/07/29 00:51:58;;;;;;;11.27;10.77;;;;;;;;;;5098003;28;20036;-60
2023/07/29 00:54:23;;;;;;;11.45;10.95;;;;;;;;;;5093993;28;20074;-60
2023/07/29 00:56:49;;;;;;;11.57;11.07;;;;;;;;;;5091923;28;20491;-59
2023/07/29 00:59:14;;;;;;;11.20;10.70;;;;;;;;;;5093742;28;20793;-60
2023/07/29 01:01:40;;;;;;;12.10;11.50;;;;;;;;;;5096516;28;20034;-60
2023/07/29 01:04:05;;;;;;;12.18;11.57;;;;;;;;;;5092745;28;20379;-60
2023/07/29 01:06:50;;;;;;;11.90;11.30;;;;;;;;;;5092092;28;20179;-60
2023/07/29 01:09:25;;;;;;;11.50;11.00;;;;;;;;;;5094467;28;20028;-59
2023/07/29 01:11:56;;;;;;;11.50;11.00;;;;;;;;;;5097070;28;20077;-60
2023/07/29 01:14:29;;;;;;;11.07;10.57;;;;;;;;;;5102512;28;20024;-59
2023/07/29 01:17:00;;;;;;;11.63;11.13;;;;;;;;;;5096167;28;20493;-60
2023/07/29 01:19:36;;;;;;;11.18;10.68;;;;;;;;;;5098040;28;20059;-60
2023/07/29 01:22:02;;;;;;;11.38;10.88;;;;;;;;;;5091411;28;20481;-60
2023/07/29 01:24:28;;;;;;;11.02;10.52;;;;;;;;;;5091234;28;20024;-60
2023/07/29 01:26:53;;;;;;;11.32;10.82;;;;;;;;;;5089823;28;20030;-60
2023/07/29 01:29:18;;;;;;;12.00;11.40;;;;;;;;;;5098226;28;20427;-61
2023/07/29 01:31:44;;;;;;;12.20;11.60;;;;;;;;;;5094114;28;20028;-60
2023/07/29 01:34:26;;;;;;;12.00;11.40;;;;;;;;;;5087229;28;20137;-62
2023/07/29 01:36:52;;;;;;;11.60;11.10;;;;;;;;;;5092561;28;20059;-60
2023/07/29 01:39:20;;;;;;;11.05;10.55;;;;;;;;;;5084174;28;20020;-59
2023/07/29 01:41:45;;;;;;;11.70;11.20;;;;;;;;;;5095176;28;20028;-60
2023/07/29 01:44:11;;;;;;;11.43;10.93;;;;;;;;;;5091865;28;20038;-61
2023/07/29 01:46:36;;;;;;;11.60;11.10;;;;;;;;;;5079077;28;20026;-61
2023/07/29 01:49:01;;;;;;;11.60;11.10;;;;;;;;;;5092291;28;20017;-61
2023/07/29 01:51:27;;;;;;;11.65;11.10;;;;;;;;;;5090875;28;20044;-61
2023/07/29 01:53:52;;;;;;;11.13;10.63;;;;;;;;;;5095763;28;20030;-60
2023/07/29 01:56:17;;;;;;;11.35;10.85;;;;;;;;;;5094359;28;20767;-60
2023/07/29 01:58:43;;;;;;;11.50;11.00;;;;;;;;;;5092753;28;20026;-61
2023/07/29 02:01:08;;;;;;;11.38;10.88;;;;;;;;;;5089058;28;20044;-60
2023/07/29 02:03:33;;;;;;;12.45;11.85;;;;;;;;;;5088041;28;20024;-60
2023/07/29 02:06:00;;;;;;;11.55;11.05;;;;;;;;;;5090187;28;20035;-60
2023/07/29 02:08:25;;;;;;;11.60;11.07;;;;;;;;;;5088592;28;20016;-59
2023/07/29 02:10:50;;;;;;;11.30;10.80;;;;;;;;;;5097872;28;20432;-60
2023/07/29 02:13:16;;;;;;;12.10;11.50;;;;;;;;;;5104220;28;20090;-60
2023/07/29 02:15:41;;;;;;;11.95;11.35;;;;;;;;;;5094529;28;20100;-61
2023/07/29 02:18:07;;;;;;;11.48;10.98;;;;;;;;;;5096139;28;20171;-60
2023/07/29 02:20:32;;;;;;;11.40;10.90;;;;;;;;;;5102336;28;20472;-60
2023/07/29 02:22:57;;;;;;;11.25;10.75;;;;;;;;;;5096191;28;20016;-60
2023/07/29 02:25:23;;;;;;;11.27;10.77;;;;;;;;;;5089511;28;20533;-61
2023/07/29 02:27:48;;;;;;;11.93;11.32;;;;;;;;;;5084539;28;20025;-60
2023/07/29 02:30:14;;;;;;;11.60;11.10;;;;;;;;;;5093563;28;20109;-60
2023/07/29 02:32:39;;;;;;;11.55;11.05;;;;;;;;;;5097995;28;20042;-60
2023/07/29 02:35:04;;;;;;;11.30;10.80;;;;;;;;;;5095209;28;20487;-60
2023/07/29 02:37:30;;;;;;;11.32;10.82;;;;;;;;;;5097420;28;20035;-61
2023/07/29 02:39:56;;;;;;;11.60;11.10;;;;;;;;;;5092270;28;20078;-60
2023/07/29 02:42:21;;;;;;;11.60;11.07;;;;;;;;;;5095637;28;20383;-59
2023/07/29 02:44:46;;;;;;;11.30;10.80;;;;;;;;;;5096705;28;20020;-61
2023/07/29 02:47:12;;;;;;;11.80;11.20;;;;;;;;;;5092998;28;20020;-60
2023/07/29 02:49:37;;;;;;;11.20;10.70;;;;;;;;;;5094568;28;20415;-60
2023/07/29 02:52:03;;;;;;;11.90;11.30;;;;;;;;;;5098739;28;20028;-60
2023/07/29 02:54:28;;;;;;;10.95;10.45;;;;;;;;;;5096442;28;20028;-61
2023/07/29 02:56:53;;;;;;;11.45;10.95;;;;;;;;;;5089759;28;20062;-59
2023/07/29 02:59:19;;;;;;;11.35;10.85;;;;;;;;;;5091825;28;20124;-61
2023/07/29 03:01:44;;;;;;;11.40;10.90;;;;;;;;;;5090022;28;20025;-61
2023/07/29 03:04:12;;;;;;;12.13;11.52;;;;;;;;;;5092504;28;20024;-61
2023/07/29 03:06:38;;;;;;;12.13;11.52;;;;;;;;;;5084956;28;20142;-60
2023/07/29 03:09:03;;;;;;;11.52;11.02;;;;;;;;;;5086424;28;20096;-60
2023/07/29 03:11:28;;;;;;;11.18;10.68;;;;;;;;;;5090836;28;20491;-61
2023/07/29 03:13:54;;;;;;;11.73;11.20;;;;;;;;;;5094738;28;20389;-60
2023/07/29 03:16:19;;;;;;;11.90;11.30;;;;;;;;;;5099202;28;20032;-60
2023/07/29 03:18:44;;;;;;;11.18;10.68;;;;;;;;;;5090018;28;20027;-61
2023/07/29 03:21:10;;;;;;;11.75;11.25;;;;;;;;;;5088479;28;20024;-59
2023/07/29 03:23:36;;;;;;;11.60;11.10;;;;;;;;;;5088009;28;20032;-60
2023/07/29 03:26:04;;;;;;;11.25;10.75;;;;;;;;;;5101582;28;20400;-61
2023/07/29 03:28:33;;;;;;;11.43;10.93;;;;;;;;;;5088331;28;20020;-61
2023/07/29 03:30:58;;;;;;;11.20;10.70;;;;;;;;;;5088977;28;20435;-60
2023/07/29 03:33:24;;;;;;;11.32;10.82;;;;;;;;;;5091093;28;20027;-61
2023/07/29 03:35:49;;;;;;;11.80;11.30;;;;;;;;;;5095365;28;20095;-60
2023/07/29 03:38:15;;;;;;;11.50;11.00;;;;;;;;;;5095802;28;20031;-59
2023/07/29 03:40:41;;;;;;;11.63;11.13;;;;;;;;;;5095786;28;20031;-59
2023/07/29 03:43:07;;;;;;;12.10;11.60;;;;;;;;;;5088459;28;20517;-60
2023/07/29 03:45:32;;;;;;;12.00;11.50;;;;;;;;;;5090715;28;20024;-62
2023/07/29 03:47:57;;;;;;;11.70;11.20;;;;;;;;;;5090617;28;20016;-61
2023/07/29 03:50:23;;;;;;;12.07;11.57;;;;;;;;;;5088026;28;20123;-60
2023/07/29 03:52:48;;;;;;;11.85;11.35;;;;;;;;;;5093314;28;20031;-59
2023/07/29 03:55:13;;;;;;;11.80;11.30;;;;;;;;;;5092706;28;20070;-60
2023/07/29 03:57:39;;;;;;;11.25;10.75;;;;;;;;;;5092674;28;20024;-60
2023/07/29 04:00:04;;;;;;;11.68;11.18;;;;;;;;;;5082302;28;20049;-60
2023/07/29 04:02:31;;;;;;;11.60;11.10;;;;;;;;;;5087005;28;20457;-59
2023/07/29 04:04:57;;;;;;;11.55;11.05;;;;;;;;;;5082676;28;20021;-60
2023/07/29 04:07:22;;;;;;;11.57;11.07;;;;;;;;;;5088939;28;20024;-61
2023/07/29 04:09:48;;;;;;;11.32;10.82;;;;;;;;;;5086427;28;20484;-60
2023/07/29 04:12:13;;;;;;;11.82;11.32;;;;;;;;;;5094642;28;20461;-59
2023/07/29 04:14:38;;;;;;;11.80;11.30;;;;;;;;;;5087874;28;20035;-60
2023/07/29 04:17:04;;;;;;;11.52;11.02;;;;;;;;;;5086626;28;20020;-59
2023/07/29 04:19:29;;;;;;;11.38;10.88;;;;;;;;;;5086147;28;20399;-60
2023/07/29 04:21:54;;;;;;;11.53;11.03;;;;;;;;;;5094399;28;20399;-61
2023/07/29 04:24:20;;;;;;;11.63;11.13;;;;;;;;;;5094251;28;20025;-61
2023/07/29 04:26:45;;;;;;;11.60;11.10;;;;;;;;;;5090360;28;20045;-61
2023/07/29 04:29:11;;;;;;;11.52;11.02;;;;;;;;;;5088862;28;20028;-61
2023/07/29 04:31:36;;;;;;;11.38;10.88;;;;;;;;;;5087691;28;20070;-60
2023/07/29 04:34:02;;;;;;;11.57;11.07;;;;;;;;;;5085615;28;20032;-60
2023/07/29 04:36:27;;;;;;;11.43;10.93;;;;;;;;;;5090525;28;20264;-60
2023/07/29 04:38:53;;;;;;;11.60;11.10;;;;;;;;;;5090952;28;20028;-61
2023/07/29 04:41:18;;;;;;;11.40;10.90;;;;;;;;;;5091551;28;20293;-62
2023/07/29 04:43:43;;;;;;;11.40;10.90;;;;;;;;;;5088085;28;20020;-61
2023/07/29 04:46:09;;;;;;;11.27;10.77;;;;;;;;;;5088398;28;20268;-59
2023/07/29 04:48:34;;;;;;;11.07;10.57;;;;;;;;;;5091502;28;20026;-60
2023/07/29 04:50:59;;;;;;;11.07;10.57;;;;;;;;;;5087930;28;20020;-61
2023/07/29 04:53:25;;;;;;;11.30;10.80;;;;;;;;;;5089928;28;20035;-61
2023/07/29 04:55:50;;;;;;;11.20;10.70;;;;;;;;;;5092515;28;20552;-60
2023/07/29 04:58:15;;;;;;;11.18;10.68;;;;;;;;;;5090085;28;20545;-60
2023/07/29 05:00:41;;;;;;;11.23;10.73;;;;;;;;;;5091828;28;20044;-61
2023/07/29 05:03:06;;;;;;;11.20;10.70;;;;;;;;;;5095551;28;20111;-61
2023/07/29 05:05:31;;;;;;;11.27;10.77;;;;;;;;;;5089164;28;20308;-60
2023/07/29 05:07:57;;;;;;;11.30;10.80;;;;;;;;;;5072631;28;20023;-60
2023/07/29 05:10:22;;;;;;;11.57;11.07;;;;;;;;;;5075340;28;20034;-61
2023/07/29 05:12:48;;;;;;;11.13;10.63;;;;;;;;;;5093731;28;20034;-60
2023/07/29 05:15:13;;;;;;;11.48;10.98;;;;;;;;;;5092263;28;20027;-60
2023/07/29 05:17:39;;;;;;;11.37;10.87;;;;;;;;;;5100772;28;20107;-60
2023/07/29 05:20:04;;;;;;;11.35;10.85;;;;;;;;;;5091802;28;20020;-60
2023/07/29 05:22:30;;;;;;;11.32;10.82;;;;;;;;;;5089515;28;20026;-64
2023/07/29 05:24:55;;;;;;;11.55;11.05;;;;;;;;;;5088014;28;20071;-60
2023/07/29 05:27:20;;;;;;;11.53;11.03;;;;;;;;;;5098357;28;20434;-61
2023/07/29 05:29:46;;;;;;;11.37;10.87;;;;;;;;;;5095767;28;20022;-61
2023/07/29 05:32:11;;;;;;;11.40;10.90;;;;;;;;;;5091728;28;20304;-62
2023/07/29 05:34:37;;;;;;;11.33;10.83;;;;;;;;;;5081319;28;20016;-61
2023/07/29 05:37:02;;;;;;;11.63;11.13;;;;;;;;;;5097955;28;20372;-61
2023/07/29 05:39:27;;;;;;;11.38;10.88;;;;;;;;;;5091565;28;20020;-61
2023/07/29 05:41:53;;;;;;;11.20;10.70;;;;;;;;;;5097745;28;20115;-61
2023/07/29 05:44:18;;;;;;;11.60;11.10;;;;;;;;;;5098389;28;20268;-61
2023/07/29 05:46:43;;;;;;;11.43;10.93;;;;;;;;;;5075595;28;20505;-61
2023/07/29 05:49:08;;;;;;;11.23;10.73;;;;;;;;;;5090985;28;20064;-60
2023/07/29 05:51:34;;;;;;;11.43;10.93;;;;;;;;;;5092282;28;20035;-61
2023/07/29 05:53:59;;;;;;;11.40;10.90;;;;;;;;;;5088006;28;20031;-61
2023/07/29 05:56:24;;;;;;;11.37;10.87;;;;;;;;;;5092147;28;20475;-60
2023/07/29 05:58:50;;;;;;;11.43;10.93;;;;;;;;;;5091542;28;20264;-61
2023/07/29 06:01:15;;;;;;;11.80;11.30;;;;;;;;;;5096628;28;20439;-61
2023/07/29 06:03:40;;;;;;;11.30;10.80;;;;;;;;;;5091032;28;20024;-61
2023/07/29 06:06:06;;;;;;;11.77;11.27;;;;;;;;;;5092091;28;20069;-60
2023/07/29 06:08:34;;;;;;;11.67;11.17;;;;;;;;;;5085970;28;20020;-59
2023/07/29 06:10:59;;;;;;;11.48;10.98;;;;;;;;;;5089948;28;20016;-61
2023/07/29 06:13:24;;;;;;;11.48;10.98;;;;;;;;;;5094249;28;20035;-61
2023/07/29 06:15:50;;;;;;;11.50;11.00;;;;;;;;;;5086284;28;20502;-61
2023/07/29 06:18:15;;;;;;;11.48;10.98;;;;;;;;;;5089684;28;20021;-59
2023/07/29 06:20:40;;;;;;;11.17;10.67;;;;;;;;;;5091522;28;20051;-59
2023/07/29 06:23:05;;;;;;;11.47;10.97;;;;;;;;;;5095319;28;20024;-60
2023/07/29 06:25:31;;;;;;;11.63;11.13;;;;;;;;;;5093562;28;20725;-60
2023/07/29 06:27:58;;;;;;;11.30;10.80;;;;;;;;;;5087284;28;20020;-61
2023/07/29 06:30:23;;;;;;;11.85;11.35;;;;;;;;;;5092702;28;20028;-62
2023/07/29 06:32:48;;;;;;;11.57;11.07;;;;;;;;;;5093146;28;20032;-61
2023/07/29 06:35:14;;;;;;;11.07;10.57;;;;;;;;;;5091237;28;20119;-60
2023/07/29 06:37:39;;;;;;;11.40;10.90;;;;;;;;;;5094541;28;20028;-61
2023/07/29 06:40:05;;;;;;;11.30;10.80;;;;;;;;;;5095042;28;20590;-61
2023/07/29 06:42:30;;;;;;;11.45;10.95;;;;;;;;;;5092793;28;20062;-60
2023/07/29 06:44:55;;;;;;;11.10;10.60;;;;;;;;;;5091823;28;20479;-60
2023/07/29 06:47:21;;;;;;;10.73;10.23;;;;;;;;;;5087237;28;20274;-60
2023/07/29 06:49:47;;;;;;;10.75;10.25;;;;;;;;;;5088948;28;20035;-61
2023/07/29 06:52:12;;;;;;;10.90;10.40;;;;;;;;;;5089139;28;20433;-60
2023/07/29 06:54:37;;;;;;;10.87;10.37;;;;;;;;;;5095472;28;20035;-60
2023/07/29 06:57:03;;;;;;;11.68;11.18;;;;;;;;;;5086543;28;20047;-59
2023/07/29 06:59:28;;;;;;;11.52;11.02;;;;;;;;;;5088038;28;20411;-61
2023/07/29 07:01:53;;;;;;;11.33;10.83;;;;;;;;;;5084372;28;20026;-60
2023/07/29 07:04:19;;;;;;;11.33;10.83;;;;;;;;;;5094895;28;20008;-60
2023/07/29 07:06:44;;;;;;;11.27;10.77;;;;;;;;;;5095069;28;20268;-60
2023/07/29 07:09:09;;;;;;;11.43;10.93;;;;;;;;;;5094513;28;20065;-59
2023/07/29 07:11:34;;;;;;;11.43;10.93;;;;;;;;;;5094222;28;20489;-60
2023/07/29 07:14:00;;;;;;;11.57;11.07;;;;;;;;;;5088560;28;20028;-59
2023/07/29 07:16:25;;;;;;;11.63;11.13;;;;;;;;;;5092394;28;20179;-60
2023/07/29 07:18:51;;;;;;;11.45;10.95;;;;;;;;;;5087197;28;20028;-60
2023/07/29 07:21:16;;;;;;;11.43;10.93;;;;;;;;;;5072703;28;20460;-60
2023/07/29 07:23:41;;;;;;;11.35;10.85;;;;;;;;;;5089581;28;20028;-61
2023/07/29 07:26:07;;;;;;;11.27;10.77;;;;;;;;;;5091753;28;20016;-61
2023/07/29 07:28:32;;;;;;;11.00;10.50;;;;;;;;;;5083437;28;20269;-60
2023/07/29 07:30:57;;;;;;;11.33;10.83;;;;;;;;;;5085480;28;20280;-60
2023/07/29 07:33:23;;;;;;;11.23;10.73;;;;;;;;;;5080406;28;20450;-59
2023/07/29 07:35:48;;;;;;;11.27;10.77;;;;;;;;;;5093385;28;20064;-59
2023/07/29 07:38:13;;;;;;;11.07;10.57;;;;;;;;;;5092036;28;20284;-59
2023/07/29 07:40:39;;;;;;;11.40;10.90;;;;;;;;;;5088743;28;20028;-60
2023/07/29 07:43:04;;;;;;;11.70;11.20;;;;;;;;;;5076377;28;20027;-62
2023/07/29 07:45:29;;;;;;;11.90;11.40;;;;;;;;;;5092808;28;20479;-63
2023/07/29 07:47:55;;;;;;;11.50;11.00;;;;;;;;;;5085434;28;20273;-65
2023/07/29 07:50:21;;;;;;;11.45;10.95;;;;;;;;;;5080294;28;20031;-63
2023/07/29 07:52:46;;;;;;;11.35;10.85;;;;;;;;;;5086545;28;20024;-62
2023/07/29 07:55:12;;;;;;;11.65;11.15;;;;;;;;;;5086575;28;20033;-63
2023/07/29 07:57:37;;;;;;;11.82;11.32;;;;;;;;;;5082321;28;20139;-63
2023/07/29 08:00:04;;;;;;;11.93;11.43;;;;;;;;;;5086691;28;20111;-63
2023/07/29 08:02:29;;;;;;;12.23;11.73;;;;;;;;;;5088015;28;20454;-63
2023/07/29 08:04:54;;;;;;;11.48;10.98;;;;;;;;;;5089795;28;20020;-64
2023/07/29 08:07:20;;;;;;;12.27;11.73;;;;;;;;;;5081891;28;20023;-64
2023/07/29 08:09:45;;;;;;;11.55;11.05;;;;;;;;;;5094219;28;20265;-63
2023/07/29 08:12:10;;;;;;;11.50;11.00;;;;;;;;;;5093007;28;20038;-62
2023/07/29 08:14:36;;;;;;;12.20;11.70;;;;;;;;;;5094560;28;20354;-63
2023/07/29 08:17:01;;;;;;;11.90;11.40;;;;;;;;;;5086716;28;20260;-63
2023/07/29 08:19:27;;;;;;;11.45;10.95;;;;;;;;;;5087085;28;20050;-63
2023/07/29 08:21:52;;;;;;;11.55;11.05;;;;;;;;;;5087522;28;20103;-63
2023/07/29 08:24:18;;;;;;;11.75;11.25;;;;;;;;;;5083555;28;20038;-64
2023/07/29 08:26:43;;;;;;;11.90;11.40;;;;;;;;;;5082789;28;20028;-63
2023/07/29 08:29:08;;;;;;;11.45;10.95;;;;;;;;;;5083210;28;20682;-63
2023/07/29 08:31:34;;;;;;;12.05;11.55;;;;;;;;;;5081205;28;20353;-63
2023/07/29 08:33:59;;;;;;;12.90;12.30;;;;;;;;;;5079326;28;20033;-64
2023/07/29 08:36:24;;;;;;;11.45;10.95;;;;;;;;;;5086993;28;20066;-63
2023/07/29 08:38:50;;;;;;;11.20;10.70;;;;;;;;;;5087981;28;20131;-63
2023/07/29 08:41:33;;;;;;;11.63;11.13;;;;;;;;;;5086588;28;20276;-63
2023/07/29 08:44:11;;;;;;;11.30;10.80;;;;;;;;;;5094228;28;20039;-63
2023/07/29 08:46:38;;;;;;;11.90;11.40;;;;;;;;;;5085911;28;20139;-63
2023/07/29 08:49:04;;;;;;;11.80;11.30;;;;;;;;;;5085051;28;20020;-64
2023/07/29 08:51:31;;;;;;;13.52;12.93;;;;;;;;;;5084525;28;20031;-62
2023/07/29 08:53:56;;;;;;;12.45;11.85;;;;;;;;;;5084068;28;20040;-63
2023/07/29 08:56:22;;;;;;;11.48;10.98;;;;;;;;;;5096922;28;20030;-62
2023/07/29 08:58:48;;;;;;;12.10;11.60;;;;;;;;;;5092966;28;20020;-63
2023/07/29 09:01:14;;;;;;;11.55;11.05;;;;;;;;;;5093217;28;20548;-63
2023/07/29 09:03:40;;;;;;;11.35;10.85;;;;;;;;;;5089194;28;20020;-63
2023/07/29 09:06:06;;;;;;;11.90;11.40;;;;;;;;;;5093089;28;20031;-64
2023/07/29 09:08:32;;;;;;;11.45;10.95;;;;;;;;;;5089290;28;20035;-63
2023/07/29 09:10:57;;;;;;;11.40;10.90;;;;;;;;;;5090932;28;20039;-63
2023/07/29 09:13:22;;;;;;;12.10;11.60;;;;;;;;;;5100418;28;20028;-63
2023/07/29 09:15:48;;;;;;;12.00;11.50;;;;;;;;;;5086875;28;20024;-63
2023/07/29 09:18:16;;;;;;;11.80;11.30;;;;;;;;;;5091150;28;20330;-64
2023/07/29 09:20:42;;;;;;;11.70;11.20;;;;;;;;;;5096577;28;20020;-63
2023/07/29 09:23:11;;;;;;;11.68;11.18;;;;;;;;;;5084039;28;20020;-63
2023/07/29 09:25:37;;;;;;;12.20;11.70;;;;;;;;;;5086096;28;20151;-63
2023/07/29 09:28:07;;;;;;;12.00;11.50;;;;;;;;;;5096109;28;20112;-63
2023/07/29 09:30:33;;;;;;;12.48;11.88;;;;;;;;;;5089422;28;20027;-63
2023/07/29 09:32:58;;;;;;;11.77;11.27;;;;;;;;;;5096448;28;20455;-64
2023/07/29 09:35:32;;;;;;;11.88;11.38;;;;;;;;;;5085621;28;20276;-63
2023/07/29 09:37:57;;;;;;;11.80;11.30;;;;;;;;;;5089175;28;20052;-63
2023/07/29 09:40:22;;;;;;;11.77;11.27;;;;;;;;;;5088821;28;20429;-63
2023/07/29 09:42:49;;;;;;;13.02;12.43;;;;;;;;;;5084248;28;20039;-64
2023/07/29 09:45:25;;;;;;;12.10;11.60;;;;;;;;;;5083671;28;20368;-62
2023/07/29 09:47:50;;;;;;;11.45;10.95;;;;;;;;;;5092265;28;20022;-64
2023/07/29 09:50:16;;;;;;;12.20;11.68;;;;;;;;;;5088841;28;20028;-62
2023/07/29 09:52:41;;;;;;;11.60;11.10;;;;;;;;;;5092929;28;20103;-62
2023/07/29 09:55:07;;;;;;;12.93;12.32;;;;;;;;;;5083052;28;20590;-62
2023/07/29 09:57:32;;;;;;;11.90;11.40;;;;;;;;;;5086356;28;20044;-65
2023/07/29 09:59:58;;;;;;;12.15;11.65;;;;;;;;;;5090837;28;20043;-62
2023/07/29 10:02:25;;;;;;;11.63;11.13;;;;;;;;;;5084645;28;20032;-62
2023/07/29 10:04:52;;;;;;;11.65;11.15;;;;;;;;;;5073723;28;20501;-61
2023/07/29 10:07:17;;;;;;;12.05;11.55;;;;;;;;;;5093698;28;20098;-61
2023/07/29 10:09:43;;;;;;;11.65;11.15;;;;;;;;;;5095127;28;20070;-60
2023/07/29 10:12:09;;;;;;;12.10;11.57;;;;;;;;;;5082411;28;20083;-60
2023/07/29 10:14:35;;;;;;;12.23;11.70;;;;;;;;;;5093860;28;20023;-62
2023/07/29 10:17:00;;;;;;;11.65;11.15;;;;;;;;;;5095105;28;20020;-61
2023/07/29 10:19:26;;;;;;;12.00;11.50;;;;;;;;;;5090205;28;20023;-62
2023/07/29 10:21:52;;;;;;;11.75;11.25;;;;;;;;;;5097699;28;20096;-61
2023/07/29 10:24:28;;;;;;;11.38;10.88;;;;;;;;;;5093695;28;20048;-60
2023/07/29 10:26:55;;;;;;;11.80;11.30;;;;;;;;;;5087304;28;20016;-61
2023/07/29 10:29:21;;;;;;;11.48;10.98;;;;;;;;;;5074070;28;20027;-62
2023/07/29 10:31:46;;;;;;;11.48;10.98;;;;;;;;;;5087805;28;20016;-60
2023/07/29 10:34:12;;;;;;;11.77;11.27;;;;;;;;;;5095032;28;20031;-61
2023/07/29 10:36:38;;;;;;;11.80;11.30;;;;;;;;;;5086605;28;20032;-62
2023/07/29 10:39:03;;;;;;;11.70;11.20;;;;;;;;;;5086930;28;20428;-61
2023/07/29 10:41:58;;;;;;;11.73;11.23;;;;;;;;;;5087773;28;20031;-60
2023/07/29 10:44:51;;;;;;;12.32;11.73;;;;;;;;;;5080379;28;20399;-60
2023/07/29 10:47:19;;;;;;;12.00;11.50;;;;;;;;;;5091133;28;20035;-61
2023/07/29 10:49:46;;;;;;;11.98;11.48;;;;;;;;;;5090719;28;20540;-60
2023/07/29 10:52:15;;;;;;;11.80;11.30;;;;;;;;;;5093710;28;20155;-60
2023/07/29 10:54:47;;;;;;;11.65;11.15;;;;;;;;;;5093703;28;20046;-60
2023/07/29 10:57:14;;;;;;;11.57;11.07;;;;;;;;;;5090386;28;20809;-59
2023/07/29 10:59:40;;;;;;;11.80;11.30;;;;;;;;;;5095295;28;20087;-62
2023/07/29 11:02:12;;;;;;;11.73;11.23;;;;;;;;;;5087846;28;20051;-59
2023/07/29 11:04:46;;;;;;;11.80;11.30;;;;;;;;;;5095527;28;20387;-60
2023/07/29 11:07:12;;;;;;;11.40;10.90;;;;;;;;;;5093559;28;20020;-61
2023/07/29 11:09:43;;;;;;;11.55;11.05;;;;;;;;;;5095326;28;20024;-60
2023/07/29 11:12:27;;;;;;;11.57;11.07;;;;;;;;;;5094056;28;20016;-60
2023/07/29 11:14:52;;;;;;;11.70;11.20;;;;;;;;;;5089903;28;20390;-61
2023/07/29 11:17:18;;;;;;;11.45;10.95;;;;;;;;;;5094308;28;20028;-60
2023/07/29 11:19:44;;;;;;;11.25;10.75;;;;;;;;;;5094806;28;20035;-61
2023/07/29 11:22:10;;;;;;;11.32;10.82;;;;;;;;;;5087872;28;20136;-60
2023/07/29 11:24:35;;;;;;;11.90;11.40;;;;;;;;;;5087237;28;20447;-61
2023/07/29 11:27:00;;;;;;;11.20;10.70;;;;;;;;;;5097634;28;20390;-60
2023/07/29 11:29:25;;;;;;;11.60;11.10;;;;;;;;;;5089433;28;20479;-62
2023/07/29 11:31:51;;;;;;;11.70;11.20;;;;;;;;;;5090989;28;20326;-60
2023/07/29 11:34:20;;;;;;;11.25;10.75;;;;;;;;;;5092328;28;20144;-60
2023/07/29 11:36:45;;;;;;;11.60;11.10;;;;;;;;;;5090551;28;20077;-60
2023/07/29 11:39:11;;;;;;;11.18;10.68;;;;;;;;;;5090744;28;20028;-60
2023/07/29 11:41:37;;;;;;;11.40;10.90;;;;;;;;;;5097104;28;20737;-61
2023/07/29 11:44:02;;;;;;;11.98;11.48;;;;;;;;;;5091088;28;20052;-60
2023/07/29 11:46:27;;;;;;;11.32;10.82;;;;;;;;;;5090199;28;20111;-61
2023/07/29 11:48:54;;;;;;;11.23;10.73;;;;;;;;;;5092809;28;20019;-62
2023/07/29 11:51:19;;;;;;;11.23;10.73;;;;;;;;;;5091430;28;20475;-62
2023/07/29 11:53:44;;;;;;;11.52;11.02;;;;;;;;;;5091918;28;20024;-60
2023/07/29 11:56:10;;;;;;;11.60;11.10;;;;;;;;;;5085520;28;20032;-60
2023/07/29 11:58:36;;;;;;;11.30;10.80;;;;;;;;;;5085586;28;20624;-61
2023/07/29 12:01:03;;;;;;;11.38;10.88;;;;;;;;;;5088770;28;20511;-62
2023/07/29 12:03:28;;;;;;;11.32;10.82;;;;;;;;;;5081925;28;20027;-61
2023/07/29 12:05:54;;;;;;;12.25;11.70;;;;;;;;;;5083219;28;20021;-62
2023/07/29 12:08:19;;;;;;;11.50;11.00;;;;;;;;;;5088316;28;20066;-61
2023/07/29 12:10:46;;;;;;;11.00;10.50;;;;;;;;;;5088349;28;20034;-60
2023/07/29 12:13:12;;;;;;;11.50;11.00;;;;;;;;;;5085755;28;21500;-62
2023/07/29 12:15:38;;;;;;;11.55;11.05;;;;;;;;;;5077604;28;20032;-62
2023/07/29 12:18:03;;;;;;;12.25;11.70;;;;;;;;;;5085045;28;20024;-61
2023/07/29 12:20:29;;;;;;;11.50;11.00;;;;;;;;;;5088409;28;20098;-62
2023/07/29 12:23:02;;;;;;;11.55;11.05;;;;;;;;;;5085165;28;20020;-61
2023/07/29 12:25:28;;;;;;;11.20;10.70;;;;;;;;;;5079618;28;20399;-59
2023/07/29 12:27:53;;;;;;;11.32;10.82;;;;;;;;;;5092221;28;20017;-60
2023/07/29 12:30:22;;;;;;;11.40;10.90;;;;;;;;;;5092301;28;20063;-61
2023/07/29 12:32:47;;;;;;;11.52;11.02;;;;;;;;;;5090959;28;20357;-61
2023/07/29 12:35:13;;;;;;;11.10;10.60;;;;;;;;;;5089211;28;20031;-61
2023/07/29 12:37:42;;;;;;;11.15;10.65;;;;;;;;;;5094506;28;20070;-61
2023/07/29 12:40:07;;;;;;;11.27;10.77;;;;;;;;;;5088340;28;20382;-61
2023/07/29 12:42:32;;;;;;;11.30;10.80;;;;;;;;;;5089097;28;20027;-62
2023/07/29 12:44:59;;;;;;;11.00;10.50;;;;;;;;;;5086391;28;20024;-60
2023/07/29 12:47:24;;;;;;;11.85;11.35;;;;;;;;;;5085573;28;20900;-60
2023/07/29 12:49:50;;;;;;;11.75;11.25;;;;;;;;;;5082876;28;20039;-60
2023/07/29 12:52:16;;;;;;;10.88;10.38;;;;;;;;;;5091313;28;20028;-61
2023/07/29 12:54:44;;;;;;;11.05;10.55;;;;;;;;;;5085947;28;20098;-60
2023/07/29 12:57:09;;;;;;;11.05;10.55;;;;;;;;;;5098294;28;20020;-61
2023/07/29 12:59:34;;;;;;;11.13;10.63;;;;;;;;;;5088822;28;20031;-61
2023/07/29 13:01:59;;;;;;;11.77;11.27;;;;;;;;;;5089847;28;20039;-61
2023/07/29 13:04:25;;;;;;;11.27;10.77;;;;;;;;;;5087445;28;20329;-60
2023/07/29 13:06:50;;;;;;;11.10;10.60;;;;;;;;;;5088534;28;21028;-58
2023/07/29 13:09:15;;;;;;;11.30;10.80;;;;;;;;;;5088161;28;20281;-60
2023/07/29 13:11:41;;;;;;;11.10;10.60;;;;;;;;;;5087807;28;20025;-60
2023/07/29 13:14:06;;;;;;;11.40;10.90;;;;;;;;;;5088878;28;20100;-61
2023/07/29 13:16:31;;;;;;;11.60;11.10;;;;;;;;;;5090349;28;20264;-60
2023/07/29 13:18:57;;;;;;;11.17;10.67;;;;;;;;;;5083589;28;20024;-60
2023/07/29 13:21:23;;;;;;;11.20;10.70;;;;;;;;;;5078171;28;20273;-61
2023/07/29 13:23:48;;;;;;;11.43;10.93;;;;;;;;;;5084549;28;20401;-60
2023/07/29 13:26:13;;;;;;;11.13;10.63;;;;;;;;;;5092080;28;20069;-61
2023/07/29 13:28:39;;;;;;;11.50;11.00;;;;;;;;;;5093370;28;20130;-60
2023/07/29 13:31:04;;;;;;;11.20;10.70;;;;;;;;;;5091042;28;20069;-61
2023/07/29 13:33:33;;;;;;;11.07;10.57;;;;;;;;;;5091957;28;20786;-61
2023/07/29 13:35:59;;;;;;;11.10;10.60;;;;;;;;;;5095266;28;20034;-61
2023/07/29 13:38:24;;;;;;;11.30;10.80;;;;;;;;;;5085997;28;20032;-60
2023/07/29 13:40:50;;;;;;;11.27;10.77;;;;;;;;;;5091651;28;20016;-61
2023/07/29 13:43:16;;;;;;;11.32;10.82;;;;;;;;;;5091927;28;20107;-59
2023/07/29 13:45:41;;;;;;;10.90;10.40;;;;;;;;;;5092148;28;20102;-60
2023/07/29 13:48:06;;;;;;;11.13;10.63;;;;;;;;;;5097448;28;20619;-59
2023/07/29 13:50:32;;;;;;;11.70;11.20;;;;;;;;;;5086946;28;20276;-60
2023/07/29 13:52:57;;;;;;;11.45;10.95;;;;;;;;;;5073154;28;20123;-61
2023/07/29 13:55:22;;;;;;;10.83;10.33;;;;;;;;;;5090708;28;20024;-61
2023/07/29 13:57:47;;;;;;;11.20;10.70;;;;;;;;;;5093774;28;20272;-60
2023/07/29 14:00:14;;;;;;;11.30;10.80;;;;;;;;;;5094173;28;20040;-59
2023/07/29 14:02:39;;;;;;;11.45;10.95;;;;;;;;;;5088967;28;20312;-62
2023/07/29 14:05:06;;;;;;;11.25;10.75;;;;;;;;;;5094349;28;20051;-59
2023/07/29 14:07:32;;;;;;;11.30;10.80;;;;;;;;;;5088464;28;20030;-61
2023/07/29 14:09:57;;;;;;;11.23;10.73;;;;;;;;;;5098031;28;20020;-63